Tri Cities Airport
KPSC : now visible

Airfield :











YOU CAN JOIN US ON...

 
LOGIN :

Register | Disclaimer

   EN    FR    IT 

 









Legend :    VFR   Marginal VFR   IFR   Intensive IFR   Very Intensive IFR
Visi :
Ceiling :
>= 8 km
>= 3000ft
5 to 8 km
1000 to 3000 ft
1500m to 5 km
500 to 1000 ft
800 to 1500m
200 to 500 ft
< 800m
< 200 ft
Symbols :   Thunderstorms  Fog  Heavy snow  Heavy precipitations  Wind > 20 kt






- Airport Elevation : 410 ft
- IATA code : PSC


KPSC - Tri Cities

CURRENT METAR :
  • 250953Z AUTO 32007KT 9SM CLR M03/M09 A3052 RMK AO2 SLP339 T10331089 $

EXPIRED METARs :
  • 250853Z AUTO VRB04KT 10SM CLR M02/M09 A3051 RMK AO2 SLP334 T10171089 53023 $
  • 250753Z AUTO 35012KT 10SM CLR M02/M08 A3048 RMK AO2 SLP324 T10171083 400781017

TAF KPSC
Valid from the 25 at 06:00 until the 26 at 06:00 UTC


250520Z 2506/2606 35008KT P6SM FEW040
FM250900 34010KT P6SM SKC
FM251800 36009KT P6SM SCT250
FM260200 VRB04KT P6SM SCT250
KZSE FIR / North America



MET'MAP, your aeronautical weather chart ! - Copyright ORBIFLY December 2007 - Disclaimer

ORBIFLY MET'MAP TEAM :

Programming & Development : Alexandra Zaïnal
Concept & original design : Baudouin d'Aumeries
Assistance for programming : Marc-Olivier Méhu
Technical & hardware support : Manuel Goepfert

Contact : metmap@orbifly.com




SOURCES & CREDITS :

   NOAA       Earth
Advisory